sensor_id;sensor_type;location;lat;lon;timestamp;pressure;altitude;pressure_sealevel;temperature;humidity
2785;BME280;57944;48.722;9.316;2023-03-12T00:00:31;97700.09;;;-3.86;100.00
2785;BME280;57944;48.722;9.316;2023-03-12T00:03:01;97710.19;;;-3.76;100.00
2785;BME280;57944;48.722;9.316;2023-03-12T00:05:31;97706.97;;;-3.54;100.00
2785;BME280;57944;48.722;9.316;2023-03-12T00:08:01;97706.75;;;-3.40;100.00
2785;BME280;57944;48.722;9.316;2023-03-12T00:10:31;97700.34;;;-3.31;100.00
2785;BME280;57944;48.722;9.316;2023-03-12T00:13:01;97704.28;;;-3.40;100.00
2785;BME280;57944;48.722;9.316;2023-03-12T00:15:35;97712.28;;;-3.59;100.00
2785;BME280;57944;48.722;9.316;2023-03-12T00:18:06;97711.19;;;-3.44;100.00
2785;BME280;57944;48.722;9.316;2023-03-12T00:20:36;97707.56;;;-3.51;100.00
2785;BME280;57944;48.722;9.316;2023-03-12T00:23:06;97708.22;;;-3.49;100.00
2785;BME280;57944;48.722;9.316;2023-03-12T00:25:36;97704.38;;;-3.53;100.00
2785;BME280;57944;48.722;9.316;2023-03-12T00:28:06;97708.16;;;-3.71;100.00
2785;BME280;57944;48.722;9.316;2023-03-12T00:30:38;97704.56;;;-3.67;100.00
2785;BME280;57944;48.722;9.316;2023-03-12T00:33:10;97713.06;;;-3.58;100.00
2785;BME280;57944;48.722;9.316;2023-03-12T00:35:40;97699.66;;;-3.33;100.00
2785;BME280;57944;48.722;9.316;2023-03-12T00:38:10;97707.25;;;-3.24;100.00
2785;BME280;57944;48.722;9.316;2023-03-12T00:40:41;97705.75;;;-3.38;100.00
2785;BME280;57944;48.722;9.316;2023-03-12T00:43:11;97697.72;;;-3.41;100.00
2785;BME280;57944;48.722;9.316;2023-03-12T00:45:44;97707.56;;;-3.40;100.00
2785;BME280;57944;48.722;9.316;2023-03-12T00:48:14;97702.34;;;-3.48;100.00
2785;BME280;57944;48.722;9.316;2023-03-12T00:50:44;97706.88;;;-3.53;100.00
2785;BME280;57944;48.722;9.316;2023-03-12T00:53:15;97699.75;;;-3.35;100.00
2785;BME280;57944;48.722;9.316;2023-03-12T00:55:45;97695.47;;;-3.22;100.00
2785;BME280;57944;48.722;9.316;2023-03-12T00:58:15;97698.66;;;-3.31;100.00
2785;BME280;57944;48.722;9.316;2023-03-12T01:00:49;97698.25;;;-3.49;100.00
2785;BME280;57944;48.722;9.316;2023-03-12T01:03:19;97698.03;;;-3.46;100.00
2785;BME280;57944;48.722;9.316;2023-03-12T01:05:49;97689.78;;;-3.35;100.00
2785;BME280;57944;48.722;9.316;2023-03-12T01:08:23;97684.94;;;-3.37;100.00
2785;BME280;57944;48.722;9.316;2023-03-12T01:10:54;97688.09;;;-3.34;100.00
2785;BME280;57944;48.722;9.316;2023-03-12T01:13:24;97688.22;;;-3.36;100.00
2785;BME280;57944;48.722;9.316;2023-03-12T01:15:57;97692.97;;;-3.33;100.00
2785;BME280;57944;48.722;9.316;2023-03-12T01:18:27;97699.66;;;-3.22;100.00
2785;BME280;57944;48.722;9.316;2023-03-12T01:20:58;97694.00;;;-3.13;100.00
2785;BME280;57944;48.722;9.316;2023-03-12T01:23:28;97700.47;;;-2.99;100.00
2785;BME280;57944;48.722;9.316;2023-03-12T01:25:58;97693.44;;;-3.05;100.00
2785;BME280;57944;48.722;9.316;2023-03-12T01:28:28;97690.16;;;-3.06;100.00
2785;BME280;57944;48.722;9.316;2023-03-12T01:31:06;97688.53;;;-2.84;100.00
2785;BME280;57944;48.722;9.316;2023-03-12T01:33:36;97697.28;;;-2.79;100.00
2785;BME280;57944;48.722;9.316;2023-03-12T01:36:17;97705.66;;;-2.80;100.00
2785;BME280;57944;48.722;9.316;2023-03-12T01:38:50;97696.00;;;-2.73;100.00
2785;BME280;57944;48.722;9.316;2023-03-12T01:41:24;97699.75;;;-2.45;100.00
2785;BME280;57944;48.722;9.316;2023-03-12T01:43:55;97705.84;;;-2.38;100.00
2785;BME280;57944;48.722;9.316;2023-03-12T01:46:33;97708.44;;;-2.28;100.00
2785;BME280;57944;48.722;9.316;2023-03-12T01:49:12;97704.75;;;-2.13;100.00
2785;BME280;57944;48.722;9.316;2023-03-12T01:51:49;97705.38;;;-1.99;100.00
2785;BME280;57944;48.722;9.316;2023-03-12T01:54:29;97706.25;;;-1.89;100.00
2785;BME280;57944;48.722;9.316;2023-03-12T01:57:03;97711.56;;;-1.83;100.00
2785;BME280;57944;48.722;9.316;2023-03-12T01:59:40;97711.22;;;-1.78;100.00
2785;BME280;57944;48.722;9.316;2023-03-12T02:02:16;97703.66;;;-1.67;100.00
2785;BME280;57944;48.722;9.316;2023-03-12T02:04:56;97699.56;;;-1.68;100.00
2785;BME280;57944;48.722;9.316;2023-03-12T02:07:28;97704.56;;;-1.68;100.00
2785;BME280;57944;48.722;9.316;2023-03-12T02:09:58;97709.28;;;-1.65;100.00
2785;BME280;57944;48.722;9.316;2023-03-12T02:12:28;97714.38;;;-1.55;100.00
2785;BME280;57944;48.722;9.316;2023-03-12T02:14:58;97708.09;;;-1.49;100.00
2785;BME280;57944;48.722;9.316;2023-03-12T02:17:31;97705.41;;;-1.58;100.00
2785;BME280;57944;48.722;9.316;2023-03-12T02:20:14;97707.00;;;-1.57;100.00
2785;BME280;57944;48.722;9.316;2023-03-12T02:22:53;97706.03;;;-1.44;100.00
2785;BME280;57944;48.722;9.316;2023-03-12T02:25:35;97714.06;;;-1.41;100.00
2785;BME280;57944;48.722;9.316;2023-03-12T02:28:09;97702.09;;;-1.37;100.00
2785;BME280;57944;48.722;9.316;2023-03-12T02:30:45;97706.75;;;-1.32;100.00
2785;BME280;57944;48.722;9.316;2023-03-12T02:33:16;97704.50;;;-1.36;100.00
2785;BME280;57944;48.722;9.316;2023-03-12T02:35:47;97712.03;;;-1.26;100.00
2785;BME280;57944;48.722;9.316;2023-03-12T02:38:38;97707.84;;;-1.46;100.00
2785;BME280;57944;48.722;9.316;2023-03-12T02:41:20;97704.06;;;-1.62;100.00
2785;BME280;57944;48.722;9.316;2023-03-12T02:43:59;97703.09;;;-1.70;100.00
2785;BME280;57944;48.722;9.316;2023-03-12T02:46:34;97708.50;;;-1.86;100.00
2785;BME280;57944;48.722;9.316;2023-03-12T02:49:04;97712.09;;;-1.79;100.00
2785;BME280;57944;48.722;9.316;2023-03-12T02:51:35;97708.56;;;-1.76;100.00
2785;BME280;57944;48.722;9.316;2023-03-12T02:54:06;97712.22;;;-1.81;100.00
2785;BME280;57944;48.722;9.316;2023-03-12T02:56:40;97706.00;;;-1.86;100.00
2785;BME280;57944;48.722;9.316;2023-03-12T02:59:11;97706.56;;;-1.83;100.00
2785;BME280;57944;48.722;9.316;2023-03-12T03:01:44;97704.34;;;-1.76;100.00
2785;BME280;57944;48.722;9.316;2023-03-12T03:04:14;97706.66;;;-1.84;100.00
2785;BME280;57944;48.722;9.316;2023-03-12T03:06:46;97700.63;;;-1.82;100.00
2785;BME280;57944;48.722;9.316;2023-03-12T03:09:17;97701.84;;;-1.76;100.00
2785;BME280;57944;48.722;9.316;2023-03-12T03:11:51;97707.53;;;-1.74;100.00
2785;BME280;57944;48.722;9.316;2023-03-12T03:14:23;97703.38;;;-1.85;100.00
2785;BME280;57944;48.722;9.316;2023-03-12T03:16:53;97696.81;;;-1.86;100.00
2785;BME280;57944;48.722;9.316;2023-03-12T03:19:24;97696.72;;;-1.95;100.00
2785;BME280;57944;48.722;9.316;2023-03-12T03:21:54;97701.97;;;-1.98;100.00
2785;BME280;57944;48.722;9.316;2023-03-12T03:24:24;97687.22;;;-2.02;100.00
2785;BME280;57944;48.722;9.316;2023-03-12T03:26:56;97685.41;;;-1.99;100.00
2785;BME280;57944;48.722;9.316;2023-03-12T03:29:26;97677.06;;;-1.89;100.00
2785;BME280;57944;48.722;9.316;2023-03-12T03:31:58;97677.63;;;-1.85;100.00
2785;BME280;57944;48.722;9.316;2023-03-12T03:34:28;97674.47;;;-1.66;100.00
2785;BME280;57944;48.722;9.316;2023-03-12T03:36:58;97675.44;;;-1.58;100.00
2785;BME280;57944;48.722;9.316;2023-03-12T03:39:30;97668.97;;;-1.39;100.00
2785;BME280;57944;48.722;9.316;2023-03-12T03:42:04;97668.72;;;-1.36;100.00
2785;BME280;57944;48.722;9.316;2023-03-12T03:44:34;97683.22;;;-1.30;100.00
2785;BME280;57944;48.722;9.316;2023-03-12T03:47:05;97679.53;;;-1.26;100.00
2785;BME280;57944;48.722;9.316;2023-03-12T03:49:35;97675.63;;;-1.19;100.00
2785;BME280;57944;48.722;9.316;2023-03-12T03:52:05;97682.78;;;-1.04;100.00
2785;BME280;57944;48.722;9.316;2023-03-12T03:54:36;97684.41;;;-0.94;100.00
2785;BME280;57944;48.722;9.316;2023-03-12T03:57:09;97665.22;;;-0.83;100.00
2785;BME280;57944;48.722;9.316;2023-03-12T03:59:39;97672.06;;;-0.85;100.00
2785;BME280;57944;48.722;9.316;2023-03-12T04:02:10;97682.06;;;-0.85;100.00
2785;BME280;57944;48.722;9.316;2023-03-12T04:04:41;97682.75;;;-0.74;100.00
2785;BME280;57944;48.722;9.316;2023-03-12T04:07:11;97682.66;;;-0.62;100.00
2785;BME280;57944;48.722;9.316;2023-03-12T04:09:43;97679.38;;;-0.53;100.00
2785;BME280;57944;48.722;9.316;2023-03-12T04:12:16;97677.28;;;-0.58;100.00
2785;BME280;57944;48.722;9.316;2023-03-12T04:14:46;97666.84;;;-0.53;100.00
2785;BME280;57944;48.722;9.316;2023-03-12T04:17:17;97668.19;;;-0.39;100.00
2785;BME280;57944;48.722;9.316;2023-03-12T04:19:47;97662.91;;;-0.36;100.00
2785;BME280;57944;48.722;9.316;2023-03-12T04:22:17;97655.97;;;-0.33;100.00
2785;BME280;57944;48.722;9.316;2023-03-12T04:24:47;97656.38;;;-0.28;100.00
2785;BME280;57944;48.722;9.316;2023-03-12T04:27:21;97666.38;;;-0.28;100.00
2785;BME280;57944;48.722;9.316;2023-03-12T04:29:51;97671.63;;;-0.31;100.00
2785;BME280;57944;48.722;9.316;2023-03-12T04:32:21;97675.06;;;-0.22;100.00
2785;BME280;57944;48.722;9.316;2023-03-12T04:34:52;97667.56;;;-0.12;100.00
2785;BME280;57944;48.722;9.316;2023-03-12T04:37:22;97657.25;;;-0.09;100.00
2785;BME280;57944;48.722;9.316;2023-03-12T04:39:52;97669.28;;;-0.13;100.00
2785;BME280;57944;48.722;9.316;2023-03-12T04:42:25;97663.72;;;-0.07;100.00
2785;BME280;57944;48.722;9.316;2023-03-12T04:44:55;97669.13;;;-0.11;100.00
2785;BME280;57944;48.722;9.316;2023-03-12T04:47:26;97672.81;;;-0.06;100.00
2785;BME280;57944;48.722;9.316;2023-03-12T04:49:56;97674.94;;;-0.01;100.00
2785;BME280;57944;48.722;9.316;2023-03-12T04:52:26;97672.03;;;0.04;100.00
2785;BME280;57944;48.722;9.316;2023-03-12T04:54:56;97671.53;;;0.00;100.00
2785;BME280;57944;48.722;9.316;2023-03-12T04:57:29;97666.25;;;0.03;100.00
2785;BME280;57944;48.722;9.316;2023-03-12T04:59:59;97668.34;;;0.08;100.00
2785;BME280;57944;48.722;9.316;2023-03-12T05:02:32;97663.47;;;0.06;100.00
2785;BME280;57944;48.722;9.316;2023-03-12T05:05:02;97665.44;;;0.03;100.00
2785;BME280;57944;48.722;9.316;2023-03-12T05:07:33;97665.72;;;0.09;100.00
2785;BME280;57944;48.722;9.316;2023-03-12T05:10:05;97668.72;;;0.22;100.00
2785;BME280;57944;48.722;9.316;2023-03-12T05:12:38;97661.69;;;0.36;100.00
2785;BME280;57944;48.722;9.316;2023-03-12T05:15:09;97667.38;;;0.38;100.00
2785;BME280;57944;48.722;9.316;2023-03-12T05:17:39;97657.50;;;0.36;100.00
2785;BME280;57944;48.722;9.316;2023-03-12T05:20:11;97660.00;;;0.36;100.00
2785;BME280;57944;48.722;9.316;2023-03-12T05:22:42;97668.03;;;0.40;100.00
2785;BME280;57944;48.722;9.316;2023-03-12T05:25:13;97647.31;;;0.38;100.00
2785;BME280;57944;48.722;9.316;2023-03-12T05:27:46;97651.50;;;0.47;100.00
2785;BME280;57944;48.722;9.316;2023-03-12T05:30:16;97654.56;;;0.51;100.00
2785;BME280;57944;48.722;9.316;2023-03-12T05:32:46;97650.72;;;0.56;100.00
2785;BME280;57944;48.722;9.316;2023-03-12T05:35:17;97648.38;;;0.45;100.00
2785;BME280;57944;48.722;9.316;2023-03-12T05:37:47;97657.03;;;0.60;100.00
2785;BME280;57944;48.722;9.316;2023-03-12T05:40:17;97655.56;;;0.68;100.00
2785;BME280;57944;48.722;9.316;2023-03-12T05:42:50;97657.13;;;0.69;100.00
2785;BME280;57944;48.722;9.316;2023-03-12T05:45:24;97662.81;;;0.71;100.00
2785;BME280;57944;48.722;9.316;2023-03-12T05:47:56;97661.75;;;0.63;100.00
2785;BME280;57944;48.722;9.316;2023-03-12T05:50:28;97660.84;;;0.64;100.00
2785;BME280;57944;48.722;9.316;2023-03-12T05:52:58;97661.25;;;0.60;100.00
2785;BME280;57944;48.722;9.316;2023-03-12T05:55:28;97669.22;;;0.36;100.00
2785;BME280;57944;48.722;9.316;2023-03-12T05:58:01;97666.34;;;0.21;100.00
2785;BME280;57944;48.722;9.316;2023-03-12T06:00:34;97669.63;;;0.31;100.00
2785;BME280;57944;48.722;9.316;2023-03-12T06:03:07;97673.59;;;0.34;100.00
2785;BME280;57944;48.722;9.316;2023-03-12T06:05:37;97673.47;;;0.26;100.00
2785;BME280;57944;48.722;9.316;2023-03-12T06:08:07;97674.50;;;0.33;100.00
2785;BME280;57944;48.722;9.316;2023-03-12T06:10:37;97688.63;;;0.34;100.00
2785;BME280;57944;48.722;9.316;2023-03-12T06:13:11;97689.16;;;0.28;100.00
2785;BME280;57944;48.722;9.316;2023-03-12T06:15:41;97685.06;;;0.27;100.00
2785;BME280;57944;48.722;9.316;2023-03-12T06:18:11;97681.25;;;0.22;100.00
2785;BME280;57944;48.722;9.316;2023-03-12T06:20:42;97691.41;;;0.21;100.00
2785;BME280;57944;48.722;9.316;2023-03-12T06:23:12;97680.31;;;0.24;100.00
2785;BME280;57944;48.722;9.316;2023-03-12T06:25:44;97679.50;;;0.33;100.00
2785;BME280;57944;48.722;9.316;2023-03-12T06:28:16;97681.25;;;0.13;100.00
2785;BME280;57944;48.722;9.316;2023-03-12T06:30:46;97676.75;;;0.16;100.00
2785;BME280;57944;48.722;9.316;2023-03-12T06:33:19;97672.94;;;0.32;100.00
2785;BME280;57944;48.722;9.316;2023-03-12T06:35:53;97665.53;;;0.40;100.00
2785;BME280;57944;48.722;9.316;2023-03-12T06:38:24;97671.56;;;0.47;100.00
2785;BME280;57944;48.722;9.316;2023-03-12T06:40:56;97668.16;;;0.48;100.00
2785;BME280;57944;48.722;9.316;2023-03-12T06:43:31;97673.06;;;0.40;100.00
2785;BME280;57944;48.722;9.316;2023-03-12T06:46:04;97674.63;;;0.41;100.00
2785;BME280;57944;48.722;9.316;2023-03-12T06:48:35;97673.97;;;0.39;100.00
2785;BME280;57944;48.722;9.316;2023-03-12T06:51:10;97671.44;;;0.49;100.00
2785;BME280;57944;48.722;9.316;2023-03-12T06:53:40;97669.72;;;0.59;100.00
2785;BME280;57944;48.722;9.316;2023-03-12T06:56:11;97668.91;;;0.58;100.00
2785;BME280;57944;48.722;9.316;2023-03-12T06:58:44;97660.03;;;0.74;100.00
2785;BME280;57944;48.722;9.316;2023-03-12T07:01:14;97660.88;;;0.92;100.00
2785;BME280;57944;48.722;9.316;2023-03-12T07:03:44;97668.91;;;0.96;100.00
2785;BME280;57944;48.722;9.316;2023-03-12T07:06:17;97668.34;;;1.11;100.00
2785;BME280;57944;48.722;9.316;2023-03-12T07:08:48;97673.16;;;1.23;100.00
2785;BME280;57944;48.722;9.316;2023-03-12T07:11:18;97665.84;;;1.29;100.00
2785;BME280;57944;48.722;9.316;2023-03-12T07:13:50;97664.59;;;1.43;100.00
2785;BME280;57944;48.722;9.316;2023-03-12T07:16:21;97670.59;;;1.50;100.00
2785;BME280;57944;48.722;9.316;2023-03-12T07:18:51;97667.38;;;1.58;100.00
2785;BME280;57944;48.722;9.316;2023-03-12T07:21:21;97671.03;;;1.64;100.00
2785;BME280;57944;48.722;9.316;2023-03-12T07:23:52;97664.38;;;1.72;100.00
2785;BME280;57944;48.722;9.316;2023-03-12T07:26:22;97669.84;;;1.68;100.00
2785;BME280;57944;48.722;9.316;2023-03-12T07:28:55;97670.91;;;1.65;100.00
2785;BME280;57944;48.722;9.316;2023-03-12T07:31:25;97682.78;;;1.73;100.00
2785;BME280;57944;48.722;9.316;2023-03-12T07:33:55;97673.50;;;1.73;100.00
2785;BME280;57944;48.722;9.316;2023-03-12T07:36:25;97673.00;;;1.88;100.00
2785;BME280;57944;48.722;9.316;2023-03-12T07:38:56;97670.47;;;2.06;100.00
2785;BME280;57944;48.722;9.316;2023-03-12T07:41:26;97673.75;;;2.24;100.00
2785;BME280;57944;48.722;9.316;2023-03-12T07:43:58;97677.03;;;2.42;100.00
2785;BME280;57944;48.722;9.316;2023-03-12T07:46:28;97666.69;;;2.45;100.00
2785;BME280;57944;48.722;9.316;2023-03-12T07:48:58;97676.72;;;2.45;100.00
2785;BME280;57944;48.722;9.316;2023-03-12T07:51:29;97677.31;;;2.65;100.00
2785;BME280;57944;48.722;9.316;2023-03-12T07:53:59;97675.13;;;2.44;100.00
2785;BME280;57944;48.722;9.316;2023-03-12T07:56:29;97667.44;;;2.72;100.00
2785;BME280;57944;48.722;9.316;2023-03-12T07:59:04;97664.00;;;2.73;100.00
2785;BME280;57944;48.722;9.316;2023-03-12T08:01:34;97665.06;;;3.05;100.00
2785;BME280;57944;48.722;9.316;2023-03-12T08:04:05;97654.41;;;3.19;100.00
2785;BME280;57944;48.722;9.316;2023-03-12T08:06:35;97655.13;;;3.46;100.00
2785;BME280;57944;48.722;9.316;2023-03-12T08:09:09;97655.44;;;3.59;100.00
2785;BME280;57944;48.722;9.316;2023-03-12T08:11:39;97672.94;;;3.61;100.00
2785;BME280;57944;48.722;9.316;2023-03-12T08:14:11;97674.06;;;3.66;100.00
2785;BME280;57944;48.722;9.316;2023-03-12T08:16:41;97676.59;;;3.99;100.00
2785;BME280;57944;48.722;9.316;2023-03-12T08:19:12;97668.22;;;4.39;100.00
2785;BME280;57944;48.722;9.316;2023-03-12T08:21:43;97680.78;;;4.72;100.00
2785;BME280;57944;48.722;9.316;2023-03-12T08:24:13;97681.09;;;4.77;100.00
2785;BME280;57944;48.722;9.316;2023-03-12T08:26:43;97676.41;;;4.50;100.00
2785;BME280;57944;48.722;9.316;2023-03-12T08:29:16;97679.50;;;4.68;100.00
2785;BME280;57944;48.722;9.316;2023-03-12T08:31:46;97677.94;;;4.75;100.00
2785;BME280;57944;48.722;9.316;2023-03-12T08:34:30;97690.38;;;4.85;100.00
2785;BME280;57944;48.722;9.316;2023-03-12T08:37:01;97686.88;;;4.94;100.00
2785;BME280;57944;48.722;9.316;2023-03-12T08:39:32;97685.81;;;4.80;100.00
2785;BME280;57944;48.722;9.316;2023-03-12T08:42:03;97691.69;;;4.56;100.00
2785;BME280;57944;48.722;9.316;2023-03-12T08:44:36;97695.63;;;4.51;100.00
2785;BME280;57944;48.722;9.316;2023-03-12T08:47:06;97692.81;;;4.45;100.00
2785;BME280;57944;48.722;9.316;2023-03-12T08:49:36;97691.41;;;4.35;100.00
2785;BME280;57944;48.722;9.316;2023-03-12T08:52:06;97684.75;;;4.50;100.00
2785;BME280;57944;48.722;9.316;2023-03-12T08:54:36;97689.44;;;4.78;100.00
2785;BME280;57944;48.722;9.316;2023-03-12T08:57:07;97689.41;;;4.86;100.00
2785;BME280;57944;48.722;9.316;2023-03-12T08:59:39;97691.31;;;4.84;100.00
2785;BME280;57944;48.722;9.316;2023-03-12T09:02:11;97693.53;;;4.79;100.00
2785;BME280;57944;48.722;9.316;2023-03-12T09:04:41;97686.47;;;4.74;100.00
2785;BME280;57944;48.722;9.316;2023-03-12T09:07:11;97687.03;;;4.92;100.00
2785;BME280;57944;48.722;9.316;2023-03-12T09:09:44;97682.31;;;4.89;100.00
2785;BME280;57944;48.722;9.316;2023-03-12T09:12:14;97677.78;;;4.77;100.00
2785;BME280;57944;48.722;9.316;2023-03-12T09:14:47;97688.03;;;4.67;100.00
2785;BME280;57944;48.722;9.316;2023-03-12T09:17:29;97688.47;;;4.79;100.00
2785;BME280;57944;48.722;9.316;2023-03-12T09:20:00;97687.94;;;5.08;100.00
2785;BME280;57944;48.722;9.316;2023-03-12T09:22:33;97692.03;;;5.40;100.00
2785;BME280;57944;48.722;9.316;2023-03-12T09:25:05;97704.53;;;5.65;100.00
2785;BME280;57944;48.722;9.316;2023-03-12T09:27:36;97699.72;;;5.78;100.00
2785;BME280;57944;48.722;9.316;2023-03-12T09:30:13;97700.03;;;5.83;100.00
2785;BME280;57944;48.722;9.316;2023-03-12T09:32:44;97697.13;;;5.94;100.00
2785;BME280;57944;48.722;9.316;2023-03-12T09:35:15;97707.81;;;6.04;100.00
2785;BME280;57944;48.722;9.316;2023-03-12T09:37:48;97706.38;;;6.25;100.00
2785;BME280;57944;48.722;9.316;2023-03-12T09:40:21;97703.38;;;6.59;100.00
2785;BME280;57944;48.722;9.316;2023-03-12T09:42:57;97708.03;;;6.85;100.00
2785;BME280;57944;48.722;9.316;2023-03-12T09:45:35;97710.75;;;6.69;100.00
2785;BME280;57944;48.722;9.316;2023-03-12T09:48:14;97717.09;;;7.24;100.00
2785;BME280;57944;48.722;9.316;2023-03-12T09:50:49;97711.88;;;7.62;100.00
2785;BME280;57944;48.722;9.316;2023-03-12T09:53:27;97711.91;;;7.83;100.00
2785;BME280;57944;48.722;9.316;2023-03-12T09:56:04;97712.81;;;7.97;100.00
2785;BME280;57944;48.722;9.316;2023-03-12T09:58:37;97719.31;;;7.85;100.00
2785;BME280;57944;48.722;9.316;2023-03-12T10:01:27;97723.81;;;8.54;100.00
2785;BME280;57944;48.722;9.316;2023-03-12T10:04:22;97716.28;;;9.02;100.00
2785;BME280;57944;48.722;9.316;2023-03-12T10:07:00;97712.72;;;9.38;100.00
2785;BME280;57944;48.722;9.316;2023-03-12T10:10:01;97712.63;;;9.66;100.00
2785;BME280;57944;48.722;9.316;2023-03-12T10:12:46;97720.31;;;9.99;100.00
2785;BME280;57944;48.722;9.316;2023-03-12T10:15:38;97726.03;;;10.55;100.00
2785;BME280;57944;48.722;9.316;2023-03-12T10:18:26;97720.38;;;11.24;94.61
2785;BME280;57944;48.722;9.316;2023-03-12T10:21:19;97719.63;;;12.25;87.97
2785;BME280;57944;48.722;9.316;2023-03-12T10:24:10;97721.91;;;12.59;83.66
2785;BME280;57944;48.722;9.316;2023-03-12T10:26:49;97727.84;;;13.33;74.65
2785;BME280;57944;48.722;9.316;2023-03-12T10:29:23;97726.69;;;14.43;68.48
2785;BME280;57944;48.722;9.316;2023-03-12T10:31:59;97729.38;;;14.60;66.89
2785;BME280;57944;48.722;9.316;2023-03-12T10:34:41;97725.03;;;13.83;73.41
2785;BME280;57944;48.722;9.316;2023-03-12T10:37:19;97729.59;;;13.51;82.21
2785;BME280;57944;48.722;9.316;2023-03-12T10:39:53;97722.56;;;12.72;81.41
2785;BME280;57944;48.722;9.316;2023-03-12T10:42:28;97727.00;;;12.59;91.21
2785;BME280;57944;48.722;9.316;2023-03-12T10:45:15;97730.16;;;11.72;95.85
2785;BME280;57944;48.722;9.316;2023-03-12T10:47:51;97740.25;;;11.60;98.44
2785;BME280;57944;48.722;9.316;2023-03-12T10:50:30;97744.16;;;11.11;100.00
2785;BME280;57944;48.722;9.316;2023-03-12T10:53:21;97747.38;;;10.87;100.00
2785;BME280;57944;48.722;9.316;2023-03-12T10:56:06;97739.31;;;10.90;100.00
2785;BME280;57944;48.722;9.316;2023-03-12T10:58:40;97747.19;;;10.75;100.00
2785;BME280;57944;48.722;9.316;2023-03-12T11:01:19;97739.66;;;11.13;100.00
2785;BME280;57944;48.722;9.316;2023-03-12T11:03:51;97748.50;;;10.98;100.00
2785;BME280;57944;48.722;9.316;2023-03-12T11:06:28;97754.53;;;11.23;100.00
2785;BME280;57944;48.722;9.316;2023-03-12T11:09:05;97739.06;;;11.63;100.00
2785;BME280;57944;48.722;9.316;2023-03-12T11:11:44;97742.19;;;12.28;100.00
2785;BME280;57944;48.722;9.316;2023-03-12T11:14:18;97746.38;;;12.91;99.57
2785;BME280;57944;48.722;9.316;2023-03-12T11:16:50;97749.06;;;13.40;90.59
2785;BME280;57944;48.722;9.316;2023-03-12T11:19:33;97755.38;;;14.75;82.96
2785;BME280;57944;48.722;9.316;2023-03-12T11:22:08;97754.72;;;14.56;76.81
2785;BME280;57944;48.722;9.316;2023-03-12T11:24:55;97747.44;;;14.41;78.62
2785;BME280;57944;48.722;9.316;2023-03-12T11:27:36;97736.84;;;13.84;79.71
2785;BME280;57944;48.722;9.316;2023-03-12T11:30:14;97747.56;;;13.93;87.61
2785;BME280;57944;48.722;9.316;2023-03-12T11:32:47;97749.44;;;13.00;94.99
2785;BME280;57944;48.722;9.316;2023-03-12T11:35:31;97744.72;;;13.40;96.24
2785;BME280;57944;48.722;9.316;2023-03-12T11:38:17;97737.91;;;14.06;97.90
2785;BME280;57944;48.722;9.316;2023-03-12T11:41:07;97743.16;;;14.23;93.33
2785;BME280;57944;48.722;9.316;2023-03-12T11:44:03;97730.38;;;13.14;100.00
2785;BME280;57944;48.722;9.316;2023-03-12T11:46:52;97729.88;;;13.43;100.00
2785;BME280;57944;48.722;9.316;2023-03-12T11:49:45;97733.38;;;13.48;100.00
2785;BME280;57944;48.722;9.316;2023-03-12T11:52:29;97731.22;;;14.05;100.00
2785;BME280;57944;48.722;9.316;2023-03-12T11:55:20;97727.94;;;13.56;100.00
2785;BME280;57944;48.722;9.316;2023-03-12T11:58:22;97732.88;;;14.77;92.91
2785;BME280;57944;48.722;9.316;2023-03-12T12:01:06;97734.53;;;15.64;84.66
2785;BME280;57944;48.722;9.316;2023-03-12T12:03:59;97727.56;;;14.37;88.47
2785;BME280;57944;48.722;9.316;2023-03-12T12:06:45;97720.41;;;13.61;100.00
2785;BME280;57944;48.722;9.316;2023-03-12T12:09:27;97732.97;;;13.51;100.00
2785;BME280;57944;48.722;9.316;2023-03-12T12:12:16;97726.84;;;13.15;100.00
2785;BME280;57944;48.722;9.316;2023-03-12T12:15:07;97724.13;;;13.77;97.76
2785;BME280;57944;48.722;9.316;2023-03-12T12:17:55;97723.00;;;14.50;92.76
2785;BME280;57944;48.722;9.316;2023-03-12T12:20:41;97710.53;;;14.89;82.82
2785;BME280;57944;48.722;9.316;2023-03-12T12:23:17;97716.16;;;14.63;85.22
2785;BME280;57944;48.722;9.316;2023-03-12T12:26:06;97707.31;;;14.82;83.94
2785;BME280;57944;48.722;9.316;2023-03-12T12:29:10;97711.94;;;13.61;91.83
2785;BME280;57944;48.722;9.316;2023-03-12T12:31:49;97701.84;;;13.66;90.52
2785;BME280;57944;48.722;9.316;2023-03-12T12:34:57;97704.88;;;13.08;94.74
2785;BME280;57944;48.722;9.316;2023-03-12T12:37:45;97705.47;;;14.12;85.36
2785;BME280;57944;48.722;9.316;2023-03-12T12:40:23;97691.84;;;15.06;79.90
2785;BME280;57944;48.722;9.316;2023-03-12T12:43:22;97689.88;;;14.96;76.02
2785;BME280;57944;48.722;9.316;2023-03-12T12:46:02;97686.59;;;15.12;77.85
2785;BME280;57944;48.722;9.316;2023-03-12T12:48:36;97688.19;;;15.02;80.02
2785;BME280;57944;48.722;9.316;2023-03-12T12:51:09;97674.66;;;14.19;79.96
2785;BME280;57944;48.722;9.316;2023-03-12T12:53:48;97688.91;;;14.38;81.30
2785;BME280;57944;48.722;9.316;2023-03-12T12:56:24;97685.53;;;14.96;77.44
2785;BME280;57944;48.722;9.316;2023-03-12T12:59:20;97683.56;;;14.51;79.73
2785;BME280;57944;48.722;9.316;2023-03-12T13:01:59;97683.31;;;13.94;83.57
2785;BME280;57944;48.722;9.316;2023-03-12T13:04:35;97679.88;;;13.58;86.57
2785;BME280;57944;48.722;9.316;2023-03-12T13:07:33;97683.44;;;12.90;89.94
2785;BME280;57944;48.722;9.316;2023-03-12T13:10:38;97684.22;;;12.54;96.52
2785;BME280;57944;48.722;9.316;2023-03-12T13:13:24;97675.66;;;12.42;94.19
2785;BME280;57944;48.722;9.316;2023-03-12T13:16:30;97677.78;;;12.26;97.92
2785;BME280;57944;48.722;9.316;2023-03-12T13:19:21;97679.75;;;12.24;100.00
2785;BME280;57944;48.722;9.316;2023-03-12T13:22:15;97678.91;;;12.30;100.00
2785;BME280;57944;48.722;9.316;2023-03-12T13:24:56;97676.56;;;12.29;100.00
2785;BME280;57944;48.722;9.316;2023-03-12T13:27:37;97676.41;;;11.99;99.40
2785;BME280;57944;48.722;9.316;2023-03-12T13:30:44;97691.28;;;11.38;100.00
2785;BME280;57944;48.722;9.316;2023-03-12T13:33:16;97694.63;;;10.81;100.00
2785;BME280;57944;48.722;9.316;2023-03-12T13:36:08;97698.19;;;10.66;100.00
2785;BME280;57944;48.722;9.316;2023-03-12T13:38:54;97699.13;;;10.85;100.00
2785;BME280;57944;48.722;9.316;2023-03-12T13:41:37;97696.66;;;11.24;100.00
2785;BME280;57944;48.722;9.316;2023-03-12T13:44:38;97693.19;;;11.50;100.00
2785;BME280;57944;48.722;9.316;2023-03-12T13:47:22;97694.19;;;11.80;100.00